createdAt,value
2022-07-29T00:00:54.721Z,1.63
2022-07-29T00:02:56.557Z,1.57
2022-07-29T00:04:58.793Z,1.70
2022-07-29T00:07:00.567Z,1.60
2022-07-29T00:09:02.779Z,1.77
2022-07-29T00:11:04.993Z,1.57
2022-07-29T00:13:07.069Z,1.50
2022-07-29T00:15:09.672Z,1.73
2022-07-29T00:17:11.468Z,1.60
2022-07-29T00:19:13.285Z,1.50
2022-07-29T00:21:15.298Z,1.53
2022-07-29T00:23:17.141Z,1.63
2022-07-29T00:25:18.942Z,1.57
2022-07-29T00:27:20.710Z,1.80
2022-07-29T00:29:37.891Z,1.57
2022-07-29T00:31:39.781Z,1.90
2022-07-29T00:33:41.711Z,1.93
2022-07-29T00:35:46.289Z,1.73
2022-07-29T00:37:48.149Z,1.47
2022-07-29T00:39:49.879Z,1.63
2022-07-29T00:41:51.823Z,1.63
2022-07-29T00:43:54.135Z,1.57
2022-07-29T00:45:56.071Z,1.70
2022-07-29T00:47:58.037Z,1.70
2022-07-29T00:49:59.855Z,1.60
2022-07-29T00:52:03.778Z,1.60
2022-07-29T00:54:06.461Z,1.50
2022-07-29T00:56:08.392Z,1.50
2022-07-29T00:58:12.725Z,1.60
2022-07-29T01:00:21.218Z,1.70
2022-07-29T01:02:23.209Z,1.90
2022-07-29T01:04:25.517Z,1.60
2022-07-29T01:06:27.915Z,1.67
2022-07-29T01:08:30.028Z,1.50
2022-07-29T01:10:32.372Z,1.70
2022-07-29T01:12:35.133Z,1.50
2022-07-29T01:14:38.293Z,1.60
2022-07-29T01:16:51.495Z,1.50
2022-07-29T01:19:01.311Z,1.60
2022-07-29T01:21:33.454Z,1.70
2022-07-29T01:24:00.166Z,1.37
2022-07-29T01:26:20.766Z,1.70
2022-07-29T01:28:40.741Z,1.50
2022-07-29T01:30:47.481Z,1.50
2022-07-29T01:32:53.976Z,1.47
2022-07-29T01:35:11.845Z,1.80
2022-07-29T01:37:29.899Z,1.70
2022-07-29T01:39:34.736Z,1.83
2022-07-29T01:41:55.421Z,1.80
2022-07-29T01:44:14.069Z,1.47
2022-07-29T01:46:21.180Z,1.60
2022-07-29T01:48:28.146Z,1.87
2022-07-29T01:50:38.286Z,1.60
2022-07-29T01:52:57.633Z,1.80
2022-07-29T01:55:03.921Z,1.50
2022-07-29T01:57:09.283Z,1.60
2022-07-29T01:59:12.484Z,2.40
2022-07-29T02:01:15.666Z,1.57
2022-07-29T02:03:19.486Z,1.70
2022-07-29T02:05:24.138Z,1.60
2022-07-29T02:07:29.422Z,1.77
2022-07-29T02:09:35.844Z,2.10
2022-07-29T02:11:39.360Z,1.60
2022-07-29T02:13:42.505Z,1.77
2022-07-29T02:15:45.523Z,1.60
2022-07-29T02:17:54.921Z,1.50
2022-07-29T02:20:00.318Z,1.87
2022-07-29T02:22:03.711Z,1.87
2022-07-29T02:24:06.166Z,1.80
2022-07-29T02:26:09.704Z,1.50
2022-07-29T02:28:12.868Z,1.77
2022-07-29T02:30:14.842Z,1.50
2022-07-29T02:32:18.170Z,1.50
2022-07-29T02:34:22.022Z,1.67
2022-07-29T02:36:25.755Z,1.80
2022-07-29T02:38:48.204Z,1.40
2022-07-29T02:40:52.842Z,1.57
2022-07-29T02:42:55.043Z,1.60
2022-07-29T02:44:57.213Z,1.63
2022-07-29T02:47:20.302Z,1.53
2022-07-29T02:49:57.973Z,1.93
2022-07-29T02:52:13.831Z,1.77
2022-07-29T02:54:40.324Z,1.60
2022-07-29T02:56:45.776Z,1.40
2022-07-29T02:58:56.158Z,1.60
2022-07-29T03:01:00.818Z,1.70
2022-07-29T03:03:08.361Z,1.63
2022-07-29T03:05:14.077Z,1.87
2022-07-29T03:07:19.113Z,1.57
2022-07-29T03:09:22.839Z,1.70
2022-07-29T03:11:42.366Z,1.53
2022-07-29T03:13:47.718Z,1.67
2022-07-29T03:15:50.442Z,1.70
2022-07-29T03:17:53.283Z,1.60
2022-07-29T03:19:56.320Z,1.90
2022-07-29T03:21:59.695Z,1.67
2022-07-29T03:24:04.463Z,1.50
2022-07-29T03:26:08.561Z,1.67
2022-07-29T03:28:10.339Z,1.60
2022-07-29T03:30:21.902Z,1.60
2022-07-29T03:32:25.316Z,1.60
2022-07-29T03:34:27.303Z,1.53
2022-07-29T03:36:29.086Z,2.00
2022-07-29T03:38:33.881Z,1.77
2022-07-29T03:40:43.961Z,2.07
2022-07-29T03:42:46.950Z,2.00
2022-07-29T03:44:49.792Z,1.70
2022-07-29T03:46:52.957Z,1.83
2022-07-29T03:48:58.864Z,1.70
2022-07-29T03:51:00.912Z,1.77
2022-07-29T03:53:03.613Z,1.80
2022-07-29T03:55:06.119Z,1.83
2022-07-29T03:57:10.514Z,1.60
2022-07-29T03:59:13.597Z,1.90
2022-07-29T04:01:18.717Z,2.00
2022-07-29T04:03:21.457Z,1.87
2022-07-29T04:05:23.446Z,1.80
2022-07-29T04:07:25.201Z,1.63
2022-07-29T04:09:27.174Z,1.90
2022-07-29T04:11:30.466Z,1.90
2022-07-29T04:13:33.593Z,1.73
2022-07-29T04:15:35.463Z,1.80
2022-07-29T04:17:37.285Z,1.70
2022-07-29T04:19:39.075Z,1.90
2022-07-29T04:21:41.694Z,1.87
2022-07-29T04:23:52.934Z,2.10
2022-07-29T04:25:55.116Z,2.50
2022-07-29T04:28:03.157Z,1.73
2022-07-29T04:30:06.159Z,1.87
2022-07-29T04:32:11.968Z,1.70
2022-07-29T04:34:15.198Z,1.60
2022-07-29T04:36:28.651Z,1.70
2022-07-29T04:38:30.887Z,1.50
2022-07-29T04:40:34.067Z,1.80
2022-07-29T04:42:36.403Z,1.53
2022-07-29T04:44:48.399Z,1.90
2022-07-29T04:46:52.247Z,2.10
2022-07-29T04:48:54.120Z,1.87
2022-07-29T04:50:56.546Z,1.80
2022-07-29T04:52:58.324Z,1.90
2022-07-29T04:55:00.406Z,1.87
2022-07-29T04:57:02.189Z,1.70
2022-07-29T04:59:04.038Z,1.83
2022-07-29T05:01:05.871Z,1.87
2022-07-29T05:03:07.979Z,1.70
2022-07-29T05:05:09.973Z,1.70
2022-07-29T05:07:11.760Z,2.03
2022-07-29T05:09:13.555Z,1.73
2022-07-29T05:11:19.394Z,1.70
2022-07-29T05:13:23.205Z,1.60
2022-07-29T05:15:25.555Z,1.93
2022-07-29T05:17:27.626Z,1.90
2022-07-29T05:19:29.404Z,1.70
2022-07-29T05:21:31.142Z,1.93
2022-07-29T05:23:33.125Z,2.07
2022-07-29T05:25:40.823Z,1.60
2022-07-29T05:27:46.403Z,1.80
2022-07-29T05:29:52.786Z,1.40
2022-07-29T05:31:54.520Z,1.50
2022-07-29T05:33:56.303Z,1.80
2022-07-29T05:36:00.542Z,1.63
2022-07-29T05:38:02.945Z,2.00
2022-07-29T05:40:05.325Z,2.10
2022-07-29T05:42:11.115Z,2.00
2022-07-29T05:44:14.599Z,2.00
2022-07-29T05:46:16.799Z,1.77
2022-07-29T05:48:18.579Z,1.87
2022-07-29T05:50:20.404Z,1.90
2022-07-29T05:52:22.310Z,1.77
2022-07-29T05:54:24.189Z,1.60
2022-07-29T05:56:26.322Z,1.90
2022-07-29T05:58:29.188Z,1.63
2022-07-29T06:00:31.153Z,1.70
2022-07-29T06:02:32.926Z,1.80
2022-07-29T06:04:35.018Z,1.73
2022-07-29T06:06:36.905Z,1.63
2022-07-29T06:08:39.492Z,1.87
2022-07-29T06:10:41.288Z,1.87
2022-07-29T06:12:43.071Z,1.70
2022-07-29T06:14:44.796Z,1.80
2022-07-29T06:16:46.743Z,1.90
2022-07-29T06:18:48.577Z,1.80
2022-07-29T06:20:51.761Z,1.93
2022-07-29T06:22:53.556Z,1.80
2022-07-29T06:24:55.443Z,2.43
2022-07-29T06:26:57.284Z,1.43
2022-07-29T06:28:59.631Z,1.63
2022-07-29T06:31:01.430Z,1.77
2022-07-29T06:33:04.168Z,1.53
2022-07-29T06:35:31.951Z,1.80
2022-07-29T06:37:28.454Z,1.57
2022-07-29T06:39:36.181Z,1.60
2022-07-29T06:41:37.994Z,1.87
2022-07-29T06:43:51.706Z,1.73
2022-07-29T06:45:56.471Z,1.60
2022-07-29T06:47:58.306Z,1.63
2022-07-29T06:50:00.972Z,1.67
2022-07-29T06:52:03.076Z,1.70
2022-07-29T06:54:06.552Z,1.83
2022-07-29T06:56:11.277Z,1.73
2022-07-29T06:58:15.081Z,1.80
2022-07-29T07:00:17.054Z,1.60
2022-07-29T07:02:18.853Z,1.70
2022-07-29T07:04:21.085Z,1.80
2022-07-29T07:06:23.164Z,1.83
2022-07-29T07:08:25.444Z,1.80
2022-07-29T07:10:27.808Z,2.37
2022-07-29T07:12:29.628Z,2.00
2022-07-29T07:14:31.454Z,1.87
2022-07-29T07:16:33.550Z,1.70
2022-07-29T07:18:35.386Z,1.83
2022-07-29T07:20:37.991Z,1.50
2022-07-29T07:22:39.761Z,1.80
2022-07-29T07:24:41.540Z,1.87
2022-07-29T07:26:43.240Z,1.90
2022-07-29T07:28:45.024Z,1.80
2022-07-29T07:30:46.944Z,1.73
2022-07-29T07:32:48.842Z,1.60
2022-07-29T07:34:50.779Z,1.70
2022-07-29T07:36:52.772Z,1.40
2022-07-29T07:38:54.538Z,1.70
2022-07-29T07:40:56.331Z,1.90
2022-07-29T07:42:58.560Z,1.80
2022-07-29T07:45:13.933Z,1.80
2022-07-29T07:47:20.803Z,1.90
2022-07-29T07:49:24.764Z,2.40
2022-07-29T07:51:26.806Z,1.50
2022-07-29T07:53:30.626Z,1.80
2022-07-29T07:55:47.560Z,2.00
2022-07-29T07:57:55.292Z,1.80
2022-07-29T07:59:57.116Z,1.87
2022-07-29T08:01:59.628Z,1.87
2022-07-29T08:04:01.550Z,1.80
2022-07-29T08:06:05.053Z,2.10
2022-07-29T08:08:07.108Z,1.90
2022-07-29T08:10:09.303Z,2.00
2022-07-29T08:12:11.163Z,2.20
2022-07-29T08:14:14.798Z,1.97
2022-07-29T08:16:16.933Z,2.03
2022-07-29T08:18:18.770Z,1.90
2022-07-29T08:20:20.582Z,2.03
2022-07-29T08:22:22.423Z,1.93
2022-07-29T08:24:43.256Z,1.90
2022-07-29T08:26:45.160Z,1.83
2022-07-29T08:28:50.264Z,2.03
2022-07-29T08:30:54.383Z,1.90
2022-07-29T08:32:56.542Z,2.00
2022-07-29T08:34:58.760Z,1.73
2022-07-29T08:37:00.549Z,1.90
2022-07-29T08:39:03.750Z,2.00
2022-07-29T08:41:05.599Z,1.90
2022-07-29T08:43:08.604Z,1.90
2022-07-29T08:45:10.898Z,2.20
2022-07-29T08:47:15.602Z,2.10
2022-07-29T08:49:18.719Z,1.90
2022-07-29T08:51:22.021Z,2.03
2022-07-29T08:53:27.701Z,2.70
2022-07-29T08:55:29.974Z,2.00
2022-07-29T08:57:33.598Z,2.23
2022-07-29T08:59:38.377Z,2.03
2022-07-29T09:01:42.469Z,2.00
2022-07-29T09:03:47.150Z,1.97
2022-07-29T09:05:49.732Z,2.10
2022-07-29T09:07:52.490Z,2.15
2022-07-29T09:09:55.717Z,2.03
2022-07-29T09:11:59.301Z,1.90
2022-07-29T09:14:01.203Z,2.00
2022-07-29T09:16:08.600Z,2.20
2022-07-29T09:18:20.341Z,2.00
2022-07-29T09:20:51.565Z,2.20
2022-07-29T09:22:54.439Z,1.90
2022-07-29T09:24:56.288Z,2.33
2022-07-29T09:26:58.066Z,2.03
2022-07-29T09:29:00.519Z,2.30
2022-07-29T09:31:03.386Z,2.17
2022-07-29T09:33:05.189Z,2.13
2022-07-29T09:35:20.891Z,2.33
2022-07-29T09:37:30.012Z,2.20
2022-07-29T09:39:38.097Z,1.95
2022-07-29T09:41:53.747Z,2.00
2022-07-29T09:43:57.461Z,2.40
2022-07-29T09:46:14.798Z,2.20
2022-07-29T09:48:18.614Z,2.30
2022-07-29T09:50:24.792Z,2.13
2022-07-29T09:52:28.247Z,2.10
2022-07-29T09:54:35.299Z,2.55
2022-07-29T09:56:43.701Z,2.10
2022-07-29T09:58:45.419Z,2.33
2022-07-29T10:00:48.484Z,2.25
2022-07-29T10:02:51.167Z,2.20
2022-07-29T10:04:53.529Z,1.92
2022-07-29T10:07:04.422Z,1.70
2022-07-29T10:09:13.079Z,2.17
2022-07-29T10:11:17.590Z,2.00
2022-07-29T10:13:19.411Z,2.10
2022-07-29T10:15:23.638Z,2.00
2022-07-29T10:17:25.541Z,2.05
2022-07-29T10:19:28.756Z,2.00
2022-07-29T10:21:36.172Z,2.00
2022-07-29T10:23:46.150Z,1.80
2022-07-29T10:25:49.054Z,1.98
2022-07-29T10:27:54.725Z,2.15
2022-07-29T10:29:56.533Z,1.80
2022-07-29T10:32:13.093Z,1.80
2022-07-29T10:34:49.450Z,1.67
2022-07-29T10:37:11.940Z,1.75
2022-07-29T10:39:44.319Z,1.70
2022-07-29T10:42:29.591Z,1.50
2022-07-29T10:44:40.293Z,1.52
2022-07-29T10:46:43.309Z,1.90
2022-07-29T10:49:08.212Z,1.85
2022-07-29T10:51:10.715Z,1.70
2022-07-29T10:53:14.453Z,1.52
2022-07-29T10:55:43.675Z,1.60
2022-07-29T10:58:14.701Z,1.63
2022-07-29T11:00:17.026Z,1.40
2022-07-29T11:02:41.854Z,1.60
2022-07-29T11:04:45.342Z,1.50
2022-07-29T11:07:07.826Z,1.70
2022-07-29T11:09:30.158Z,1.90
2022-07-29T11:11:43.747Z,1.70
2022-07-29T11:13:52.495Z,1.42
2022-07-29T11:15:56.731Z,1.77
2022-07-29T11:17:59.542Z,1.80
2022-07-29T11:20:37.918Z,1.88
2022-07-29T11:22:43.136Z,1.80
2022-07-29T11:25:19.239Z,1.90
2022-07-29T11:27:41.112Z,1.75
2022-07-29T11:29:58.548Z,1.80
2022-07-29T11:32:22.884Z,2.10
2022-07-29T11:34:42.487Z,1.83
2022-07-29T11:37:10.184Z,1.90
2022-07-29T11:39:39.912Z,2.00
2022-07-29T11:41:41.758Z,1.85
2022-07-29T11:43:56.083Z,2.15
2022-07-29T11:45:58.129Z,2.00
2022-07-29T11:48:29.995Z,2.00
2022-07-29T11:50:33.126Z,2.20
2022-07-29T11:52:49.664Z,2.00
2022-07-29T11:54:58.328Z,1.65
2022-07-29T11:57:03.492Z,2.00
2022-07-29T11:59:11.941Z,1.90
2022-07-29T12:01:18.576Z,1.70
2022-07-29T12:03:34.813Z,1.85
2022-07-29T12:05:48.053Z,1.80
2022-07-29T12:07:50.566Z,1.98
2022-07-29T12:09:56.826Z,2.00
2022-07-29T12:12:04.761Z,1.98
2022-07-29T12:14:07.292Z,1.80
2022-07-29T12:16:09.453Z,1.80
2022-07-29T12:18:18.927Z,1.65
2022-07-29T12:20:28.958Z,1.90
2022-07-29T12:22:38.141Z,1.95
2022-07-29T12:24:46.459Z,1.80
2022-07-29T12:26:52.309Z,1.80
2022-07-29T12:28:54.749Z,1.90
2022-07-29T12:30:57.879Z,1.75
2022-07-29T12:33:01.254Z,1.92
2022-07-29T12:35:10.168Z,1.98
2022-07-29T12:37:12.638Z,1.75
2022-07-29T12:39:16.056Z,1.58
2022-07-29T12:41:17.891Z,1.55
2022-07-29T12:43:23.224Z,2.13
2022-07-29T12:45:31.877Z,2.00
2022-07-29T12:47:34.202Z,1.70
2022-07-29T12:49:37.995Z,1.70
2022-07-29T12:51:41.485Z,1.60
2022-07-29T12:54:04.237Z,1.70
2022-07-29T12:56:20.562Z,1.60
2022-07-29T12:58:31.351Z,1.73
2022-07-29T13:00:33.369Z,1.60
2022-07-29T13:02:35.951Z,1.50
2022-07-29T13:04:39.408Z,1.80
2022-07-29T13:06:46.144Z,1.90
2022-07-29T13:09:05.385Z,1.70
2022-07-29T13:11:07.231Z,1.73
2022-07-29T13:13:12.154Z,1.60
2022-07-29T13:15:17.757Z,1.70
2022-07-29T13:17:23.991Z,1.50
2022-07-29T13:20:00.364Z,1.73
2022-07-29T13:22:06.055Z,1.52
2022-07-29T13:24:08.819Z,1.70
2022-07-29T13:26:12.503Z,1.60
2022-07-29T13:28:14.302Z,1.40
2022-07-29T13:30:16.138Z,1.42
2022-07-29T13:32:18.222Z,1.60
2022-07-29T13:34:22.554Z,1.38
2022-07-29T13:36:24.506Z,1.60
2022-07-29T13:38:31.151Z,1.48
2022-07-29T13:40:34.768Z,1.38
2022-07-29T13:42:36.642Z,1.40
2022-07-29T13:44:39.016Z,1.30
2022-07-29T13:46:40.827Z,1.42
2022-07-29T13:48:42.618Z,1.38
2022-07-29T13:50:44.755Z,1.48
2022-07-29T13:52:48.981Z,1.73
2022-07-29T13:54:50.898Z,1.45
2022-07-29T13:56:53.107Z,1.42
2022-07-29T13:58:54.929Z,1.40
2022-07-29T14:00:57.865Z,1.50
2022-07-29T14:02:59.707Z,1.50
2022-07-29T14:05:06.177Z,1.50
2022-07-29T14:07:10.965Z,1.30
2022-07-29T14:09:20.894Z,1.80
2022-07-29T14:11:22.811Z,1.30
2022-07-29T14:13:26.375Z,1.40
2022-07-29T14:15:28.322Z,1.35
2022-07-29T14:17:30.141Z,1.75
2022-07-29T14:19:36.463Z,1.60
2022-07-29T14:21:39.461Z,1.40
2022-07-29T14:23:42.341Z,1.55
2022-07-29T14:25:45.985Z,1.45
2022-07-29T14:27:51.274Z,1.50
2022-07-29T14:29:53.119Z,1.40
2022-07-29T14:31:55.046Z,1.50
2022-07-29T14:34:01.141Z,1.48
2022-07-29T14:36:04.937Z,1.70
2022-07-29T14:38:06.849Z,1.52
2022-07-29T14:40:10.162Z,1.50
2022-07-29T14:42:12.750Z,1.55
2022-07-29T14:44:14.837Z,1.40
2022-07-29T14:46:16.774Z,1.40
2022-07-29T14:48:20.092Z,1.58
2022-07-29T14:50:27.602Z,1.70
2022-07-29T14:52:34.123Z,1.60
2022-07-29T14:54:35.901Z,1.88
2022-07-29T14:56:37.922Z,1.60
2022-07-29T14:58:51.579Z,1.70
2022-07-29T15:00:55.623Z,1.80
2022-07-29T15:03:02.204Z,1.60
2022-07-29T15:05:04.975Z,1.80
2022-07-29T15:07:06.727Z,1.75
2022-07-29T15:09:08.490Z,2.10
2022-07-29T15:11:10.306Z,1.75
2022-07-29T15:13:12.302Z,1.88
2022-07-29T15:15:14.429Z,2.00
2022-07-29T15:17:16.425Z,1.92
2022-07-29T15:19:18.349Z,2.08
2022-07-29T15:21:20.196Z,1.85
2022-07-29T15:23:22.116Z,2.00
2022-07-29T15:25:25.065Z,2.03
2022-07-29T15:27:27.267Z,2.15
2022-07-29T15:29:29.126Z,2.30
2022-07-29T15:31:31.156Z,2.10
2022-07-29T15:33:32.964Z,1.85
2022-07-29T15:35:40.312Z,2.10
2022-07-29T15:37:48.487Z,1.83
2022-07-29T15:39:51.525Z,2.00
2022-07-29T15:41:53.489Z,2.10
2022-07-29T15:43:55.296Z,1.75
2022-07-29T15:46:15.833Z,2.15
2022-07-29T15:48:17.735Z,1.83
2022-07-29T15:50:20.260Z,2.10
2022-07-29T15:52:25.848Z,2.05
2022-07-29T15:54:28.715Z,2.00
2022-07-29T15:56:30.977Z,2.22
2022-07-29T15:58:32.854Z,2.10
2022-07-29T16:00:34.603Z,2.30
2022-07-29T16:02:36.413Z,2.17
2022-07-29T16:04:38.298Z,2.03
2022-07-29T16:06:40.347Z,2.40
2022-07-29T16:08:42.503Z,1.98
2022-07-29T16:10:44.303Z,2.33
2022-07-29T16:12:46.053Z,2.00
2022-07-29T16:14:49.367Z,2.10
2022-07-29T16:16:51.418Z,2.35
2022-07-29T16:18:53.227Z,2.15
2022-07-29T16:20:55.020Z,2.30
2022-07-29T16:22:57.064Z,2.00
2022-07-29T16:24:58.952Z,2.20
2022-07-29T16:27:01.073Z,2.28
2022-07-29T16:29:04.600Z,2.58
2022-07-29T16:31:06.350Z,2.75
2022-07-29T16:33:08.572Z,2.47
2022-07-29T16:35:10.468Z,2.30
2022-07-29T16:37:12.245Z,2.70
2022-07-29T16:39:13.983Z,2.35
2022-07-29T16:41:17.906Z,2.75
2022-07-29T16:43:19.693Z,2.63
2022-07-29T16:45:21.634Z,2.60
2022-07-29T16:47:23.493Z,2.50
2022-07-29T16:49:28.271Z,2.58
2022-07-29T16:51:30.372Z,2.47
2022-07-29T16:53:32.610Z,2.20
2022-07-29T16:55:34.597Z,2.70
2022-07-29T16:57:36.633Z,2.80
2022-07-29T16:59:43.400Z,2.37
2022-07-29T17:01:45.432Z,2.67
2022-07-29T17:04:05.903Z,2.50
2022-07-29T17:06:07.641Z,2.43
2022-07-29T17:08:09.383Z,2.40
2022-07-29T17:10:12.116Z,2.60
2022-07-29T17:12:13.913Z,2.60
2022-07-29T17:14:15.673Z,2.97
2022-07-29T17:16:19.657Z,2.50
2022-07-29T17:18:21.478Z,2.50
2022-07-29T17:20:23.441Z,2.50
2022-07-29T17:22:25.459Z,2.60
2022-07-29T17:24:27.321Z,2.50
2022-07-29T17:26:30.953Z,2.50
2022-07-29T17:28:32.721Z,2.40
2022-07-29T17:30:36.847Z,2.60
2022-07-29T17:32:40.076Z,2.40
2022-07-29T17:34:42.598Z,2.60
2022-07-29T17:36:44.522Z,2.40
2022-07-29T17:38:46.360Z,2.37
2022-07-29T17:40:48.137Z,2.40
2022-07-29T17:42:50.442Z,2.70
2022-07-29T17:44:52.406Z,2.77
2022-07-29T17:46:54.209Z,2.27
2022-07-29T17:48:57.388Z,2.40
2022-07-29T17:50:59.234Z,2.60
2022-07-29T17:53:01.189Z,2.53
2022-07-29T17:55:02.957Z,2.60
2022-07-29T17:57:04.705Z,2.97
2022-07-29T17:59:08.500Z,2.70
2022-07-29T18:01:10.601Z,2.60
2022-07-29T18:03:12.771Z,2.73
2022-07-29T18:05:14.585Z,2.50
2022-07-29T18:07:16.416Z,2.60
2022-07-29T18:09:18.659Z,2.47
2022-07-29T18:11:20.687Z,2.80
2022-07-29T18:13:22.509Z,2.50
2022-07-29T18:15:24.440Z,2.77
2022-07-29T18:17:34.580Z,2.30
2022-07-29T18:19:48.729Z,2.50
2022-07-29T18:21:55.352Z,2.70
2022-07-29T18:23:58.464Z,2.73
2022-07-29T18:26:00.208Z,2.50
2022-07-29T18:28:02.072Z,2.60
2022-07-29T18:30:05.506Z,2.40
2022-07-29T18:32:07.589Z,2.80
2022-07-29T18:34:09.404Z,2.53
2022-07-29T18:36:11.971Z,2.60
2022-07-29T18:38:14.062Z,2.70
2022-07-29T18:40:15.873Z,3.07
2022-07-29T18:42:17.622Z,3.10
2022-07-29T18:44:22.003Z,2.90
2022-07-29T18:46:25.478Z,2.80
2022-07-29T18:48:27.633Z,3.07
2022-07-29T18:50:30.031Z,2.97
2022-07-29T18:52:32.246Z,2.90
2022-07-29T18:54:34.041Z,2.70
2022-07-29T18:56:36.107Z,2.70
2022-07-29T18:58:38.802Z,2.53
2022-07-29T19:00:40.813Z,2.90
2022-07-29T19:02:43.447Z,3.00
2022-07-29T19:04:46.116Z,2.90
2022-07-29T19:06:47.955Z,2.60
2022-07-29T19:08:49.773Z,2.83
2022-07-29T19:10:51.610Z,2.70
2022-07-29T19:12:54.304Z,2.60
2022-07-29T19:14:56.153Z,2.43
2022-07-29T19:16:58.224Z,2.70
2022-07-29T19:19:01.075Z,2.50
2022-07-29T19:21:04.900Z,2.40
2022-07-29T19:23:06.874Z,2.70
2022-07-29T19:25:09.977Z,2.50
2022-07-29T19:27:12.165Z,2.60
2022-07-29T19:29:15.149Z,2.47
2022-07-29T19:31:17.033Z,2.20
2022-07-29T19:33:19.514Z,2.20
2022-07-29T19:35:24.153Z,2.20
2022-07-29T19:37:25.998Z,2.30
2022-07-29T19:39:31.998Z,2.37
2022-07-29T19:41:38.017Z,2.13
2022-07-29T19:43:51.830Z,2.20
2022-07-29T19:45:54.674Z,1.93
2022-07-29T19:48:01.282Z,2.13
2022-07-29T19:50:03.975Z,1.90
2022-07-29T19:52:05.992Z,2.23
2022-07-29T19:54:09.480Z,2.00
2022-07-29T19:56:11.478Z,2.07
2022-07-29T19:58:13.396Z,2.03
2022-07-29T20:00:16.601Z,2.10
2022-07-29T20:02:20.099Z,2.00
2022-07-29T20:04:22.101Z,1.90
2022-07-29T20:06:24.288Z,2.30
2022-07-29T20:08:26.209Z,2.13
2022-07-29T20:10:27.989Z,2.30
2022-07-29T20:12:29.777Z,2.13
2022-07-29T20:14:31.567Z,2.37
2022-07-29T20:16:33.558Z,2.23
2022-07-29T20:18:35.348Z,2.10
2022-07-29T20:20:37.188Z,2.23
2022-07-29T20:22:39.295Z,2.17
2022-07-29T20:24:41.319Z,2.07
2022-07-29T20:26:47.114Z,2.17
2022-07-29T20:28:49.580Z,2.10
2022-07-29T20:30:51.664Z,2.00
2022-07-29T20:32:53.701Z,2.33
2022-07-29T20:34:55.706Z,1.90
2022-07-29T20:36:58.094Z,2.20
2022-07-29T20:39:00.186Z,2.20
2022-07-29T20:41:02.030Z,2.10
2022-07-29T20:43:03.877Z,2.00
2022-07-29T20:45:08.548Z,2.50
2022-07-29T20:47:10.673Z,2.37
2022-07-29T20:49:12.481Z,2.20
2022-07-29T20:51:14.573Z,2.20
2022-07-29T20:53:20.469Z,2.20
2022-07-29T20:55:22.424Z,2.33
2022-07-29T20:57:39.067Z,2.40
2022-07-29T20:59:45.799Z,2.63
2022-07-29T21:01:51.822Z,2.00
2022-07-29T21:03:53.585Z,2.20
2022-07-29T21:05:55.393Z,2.07
2022-07-29T21:07:58.309Z,2.17
2022-07-29T21:10:00.476Z,2.30
2022-07-29T21:12:02.533Z,2.30
2022-07-29T21:14:04.406Z,2.40
2022-07-29T21:16:14.909Z,2.30
2022-07-29T21:18:36.840Z,2.00
2022-07-29T21:20:38.688Z,2.33
2022-07-29T21:22:40.600Z,2.80
2022-07-29T21:24:42.447Z,2.73
2022-07-29T21:26:54.459Z,2.30
2022-07-29T21:29:01.546Z,2.37
2022-07-29T21:31:13.891Z,2.10
2022-07-29T21:33:15.798Z,2.00
2022-07-29T21:36:02.089Z,2.40
2022-07-29T21:37:39.931Z,2.10
2022-07-29T21:39:41.727Z,2.50
2022-07-29T21:41:43.467Z,2.20
2022-07-29T21:43:46.072Z,2.20
2022-07-29T21:45:50.155Z,2.30
2022-07-29T21:47:52.096Z,2.50
2022-07-29T21:49:53.877Z,2.30
2022-07-29T21:51:55.644Z,2.23
2022-07-29T21:53:57.547Z,2.27
2022-07-29T21:55:59.658Z,2.10
2022-07-29T21:58:01.500Z,2.47
2022-07-29T22:00:05.370Z,2.27
2022-07-29T22:02:14.436Z,2.20
2022-07-29T22:04:16.244Z,2.27
2022-07-29T22:06:18.564Z,2.50
2022-07-29T22:08:20.523Z,2.57
2022-07-29T22:10:22.539Z,2.33
2022-07-29T22:12:24.338Z,2.67
2022-07-29T22:14:26.087Z,2.50
2022-07-29T22:16:28.019Z,2.73
2022-07-29T22:18:29.872Z,2.40
2022-07-29T22:20:32.077Z,2.50
2022-07-29T22:22:34.010Z,2.80
2022-07-29T22:24:35.812Z,2.60
2022-07-29T22:26:38.489Z,2.30
2022-07-29T22:28:40.581Z,2.40
2022-07-29T22:30:42.607Z,2.50
2022-07-29T22:32:44.950Z,2.33
2022-07-29T22:34:46.852Z,2.30
2022-07-29T22:36:48.626Z,2.80
2022-07-29T22:38:52.060Z,2.40
2022-07-29T22:40:54.244Z,2.50
2022-07-29T22:43:02.470Z,2.40
2022-07-29T22:45:04.839Z,2.40
2022-07-29T22:47:07.000Z,2.53
2022-07-29T22:49:08.801Z,2.50
2022-07-29T22:51:10.726Z,2.50
2022-07-29T22:53:12.566Z,2.67
2022-07-29T22:55:14.880Z,2.40
2022-07-29T22:57:16.745Z,2.70
2022-07-29T22:59:18.580Z,2.67
2022-07-29T23:01:37.318Z,2.37
2022-07-29T23:03:40.164Z,2.60
2022-07-29T23:05:52.631Z,2.63
2022-07-29T23:07:54.495Z,2.50
2022-07-29T23:09:56.799Z,2.77
2022-07-29T23:11:58.704Z,2.80
2022-07-29T23:14:00.439Z,2.67
2022-07-29T23:16:02.223Z,2.83
2022-07-29T23:18:04.122Z,2.63
2022-07-29T23:20:10.303Z,2.80
2022-07-29T23:22:12.046Z,2.80
2022-07-29T23:24:13.928Z,3.03
2022-07-29T23:26:16.909Z,2.50
2022-07-29T23:28:18.872Z,2.70
2022-07-29T23:30:20.682Z,2.70
2022-07-29T23:32:22.541Z,2.90
2022-07-29T23:34:24.579Z,2.93
2022-07-29T23:36:26.702Z,3.27
2022-07-29T23:38:28.490Z,3.00
2022-07-29T23:40:30.524Z,2.97
2022-07-29T23:42:32.467Z,2.97
2022-07-29T23:44:34.331Z,2.80
2022-07-29T23:46:36.110Z,2.80
2022-07-29T23:48:38.036Z,3.27
2022-07-29T23:50:39.801Z,3.10
2022-07-29T23:52:41.876Z,2.73
2022-07-29T23:54:43.658Z,2.87
2022-07-29T23:56:45.453Z,3.00
2022-07-29T23:58:48.292Z,3.10
